createdAt,value
2022-09-09T00:02:31.565Z,384.58
2022-09-09T00:06:15.031Z,442.60
2022-09-09T00:09:25.145Z,372.58
2022-09-09T00:12:50.099Z,478.45
2022-09-09T00:16:24.636Z,329.48
2022-09-09T00:19:54.818Z,440.42
2022-09-09T00:23:34.203Z,543.00
2022-09-09T00:26:47.993Z,533.10
2022-09-09T00:30:21.300Z,541.35
2022-09-09T00:33:27.597Z,559.42
2022-09-09T00:36:33.724Z,559.20
2022-09-09T00:39:45.689Z,479.30
2022-09-09T00:43:32.988Z,442.70
2022-09-09T00:46:46.494Z,398.05
2022-09-09T00:54:20.632Z,505.65
2022-09-09T00:57:32.256Z,366.13
2022-09-09T01:00:56.079Z,494.80
2022-09-09T01:04:01.450Z,392.00
2022-09-09T01:07:19.938Z,529.22
2022-09-09T01:10:58.807Z,453.63
2022-09-09T01:14:41.135Z,468.75
2022-09-09T01:18:14.148Z,583.30
2022-09-09T01:21:38.622Z,380.42
2022-09-09T01:25:18.749Z,526.13
2022-09-09T01:28:29.235Z,440.92
2022-09-09T01:31:44.496Z,419.27
2022-09-09T01:34:49.238Z,454.67
2022-09-09T01:37:54.010Z,381.20
2022-09-09T01:40:59.457Z,537.70
2022-09-09T01:44:05.946Z,598.83
2022-09-09T01:47:10.503Z,499.58
2022-09-09T01:50:18.115Z,523.50
2022-09-09T01:53:23.649Z,408.58
2022-09-09T01:57:16.314Z,351.25
2022-09-09T02:00:21.078Z,373.23
2022-09-09T02:03:29.438Z,449.08
2022-09-09T02:06:41.008Z,547.88
2022-09-09T02:09:52.911Z,383.00
2022-09-09T02:13:16.959Z,452.35
2022-09-09T02:17:07.766Z,434.00
2022-09-09T02:20:15.467Z,399.42
2022-09-09T02:23:21.921Z,402.92
2022-09-09T02:26:27.431Z,569.35
2022-09-09T02:29:39.596Z,366.08
2022-09-09T02:32:46.506Z,574.70
2022-09-09T02:35:52.723Z,495.90
2022-09-09T02:38:58.110Z,405.35
2022-09-09T02:42:04.863Z,596.60
2022-09-09T02:45:12.103Z,590.97
2022-09-09T02:48:44.904Z,576.55
2022-09-09T02:52:06.746Z,407.70
2022-09-09T02:55:41.021Z,625.50
2022-09-09T02:58:45.327Z,380.80
2022-09-09T03:01:49.526Z,418.15
2022-09-09T03:04:54.029Z,583.22
2022-09-09T03:07:58.517Z,489.35
2022-09-09T03:11:02.699Z,557.28
2022-09-09T03:20:15.898Z,474.35
2022-09-09T03:23:20.046Z,583.63
2022-09-09T03:26:24.698Z,425.00
2022-09-09T03:29:28.924Z,305.08
2022-09-09T03:32:33.390Z,453.30
2022-09-09T03:35:37.687Z,265.45
2022-09-09T03:38:42.580Z,257.15
2022-09-09T03:41:49.304Z,267.20
2022-09-09T03:44:53.879Z,278.05
2022-09-09T03:47:58.137Z,284.63
2022-09-09T03:51:03.427Z,240.27
2022-09-09T03:54:09.342Z,497.38
2022-09-09T03:57:14.700Z,366.00
2022-09-09T04:00:18.974Z,382.05
2022-09-09T04:03:28.071Z,305.00
2022-09-09T04:06:32.834Z,369.90
2022-09-09T04:09:37.502Z,247.02
2022-09-09T04:12:42.302Z,334.40
2022-09-09T04:15:59.490Z,305.10
2022-09-09T04:19:05.940Z,449.70
2022-09-09T04:22:10.713Z,522.40
2022-09-09T04:25:15.232Z,364.15
2022-09-09T04:28:22.373Z,265.63
2022-09-09T04:31:26.890Z,374.10
2022-09-09T04:34:32.271Z,444.45
2022-09-09T04:37:36.819Z,278.17
2022-09-09T04:40:45.060Z,254.68
2022-09-09T04:43:49.755Z,239.93
2022-09-09T04:46:54.456Z,327.80
2022-09-09T04:49:58.903Z,491.13
2022-09-09T04:53:05.868Z,486.80
2022-09-09T04:56:14.527Z,503.13
2022-09-09T04:59:19.308Z,328.35
2022-09-09T05:02:25.217Z,296.95
2022-09-09T05:05:32.979Z,364.10
2022-09-09T05:08:42.219Z,464.80
2022-09-09T05:11:47.245Z,391.75
2022-09-09T05:14:51.578Z,388.90
2022-09-09T05:18:01.920Z,335.70
2022-09-09T05:21:07.648Z,325.48
2022-09-09T05:24:12.148Z,299.75
2022-09-09T05:27:16.615Z,333.02
2022-09-09T05:30:23.201Z,372.42
2022-09-09T05:33:28.589Z,331.45
2022-09-09T05:36:33.488Z,319.20
2022-09-09T05:39:38.042Z,358.55
2022-09-09T05:42:42.734Z,369.63
2022-09-09T05:46:01.012Z,280.92
2022-09-09T05:49:06.501Z,285.98
2022-09-09T05:52:11.019Z,357.48
2022-09-09T05:55:16.503Z,271.40
2022-09-09T05:58:21.034Z,241.25
2022-09-09T06:01:36.354Z,318.02
2022-09-09T06:04:40.859Z,267.15
2022-09-09T06:07:45.772Z,282.15
2022-09-09T06:10:50.384Z,335.45
2022-09-09T06:13:55.650Z,292.33
2022-09-09T06:16:59.943Z,239.18
2022-09-09T06:20:04.817Z,264.75
2022-09-09T06:23:09.173Z,271.73
2022-09-09T06:26:20.345Z,287.73
2022-09-09T06:29:24.783Z,224.48
2022-09-09T06:32:29.478Z,217.02
2022-09-09T06:35:33.980Z,205.27
2022-09-09T06:38:38.939Z,219.85
2022-09-09T06:41:44.046Z,214.95
2022-09-09T06:44:49.054Z,197.15
2022-09-09T06:47:57.643Z,243.82
2022-09-09T06:51:07.664Z,264.83
2022-09-09T06:54:13.236Z,212.43
2022-09-09T07:00:41.652Z,233.63
2022-09-09T07:03:51.229Z,190.10
2022-09-09T07:06:55.692Z,202.43
2022-09-09T07:09:59.808Z,181.00
2022-09-09T07:13:05.641Z,226.18
2022-09-09T07:16:15.913Z,185.77
2022-09-09T07:19:20.320Z,176.50
2022-09-09T07:22:26.105Z,169.40
2022-09-09T07:25:31.367Z,204.90
2022-09-09T07:28:35.937Z,174.80
2022-09-09T07:31:41.044Z,168.60
2022-09-09T07:34:45.520Z,161.88
2022-09-09T07:37:51.134Z,147.27
2022-09-09T07:41:15.313Z,156.10
2022-09-09T07:44:23.137Z,161.77
2022-09-09T07:47:27.839Z,169.57
2022-09-09T07:50:32.309Z,154.38
2022-09-09T07:53:37.442Z,144.18
2022-09-09T07:56:43.497Z,164.20
2022-09-09T07:59:47.974Z,157.70
2022-09-09T08:02:53.829Z,159.13
2022-09-09T08:06:03.987Z,154.70
2022-09-09T08:09:10.319Z,164.48
2022-09-09T08:12:15.225Z,167.57
2022-09-09T08:15:19.735Z,147.50
2022-09-09T08:18:24.671Z,148.65
2022-09-09T08:21:32.728Z,132.88
2022-09-09T08:24:37.109Z,130.57
2022-09-09T08:27:41.428Z,138.63
2022-09-09T08:30:45.959Z,144.80
2022-09-09T08:33:53.354Z,174.23
2022-09-09T08:36:57.947Z,151.95
2022-09-09T08:40:03.907Z,143.10
2022-09-09T08:43:09.427Z,148.45
2022-09-09T08:46:31.358Z,162.60
2022-09-09T08:50:06.121Z,149.23
2022-09-09T08:53:23.600Z,143.95
2022-09-09T08:56:32.094Z,138.10
2022-09-09T08:59:38.465Z,122.88
2022-09-09T09:02:53.503Z,124.40
2022-09-09T09:06:23.738Z,105.10
2022-09-09T09:09:38.409Z,119.43
2022-09-09T09:12:45.305Z,108.80
2022-09-09T09:16:01.659Z,102.93
2022-09-09T09:19:11.075Z,103.07
2022-09-09T09:22:33.908Z,95.35
2022-09-09T09:25:42.012Z,81.30
2022-09-09T09:28:47.004Z,72.70
2022-09-09T09:32:00.364Z,71.43
2022-09-09T09:35:13.263Z,64.60
2022-09-09T09:41:51.947Z,63.03
2022-09-09T09:44:56.326Z,51.00
2022-09-09T09:48:07.941Z,45.67
2022-09-09T09:51:18.094Z,45.83
2022-09-09T09:54:38.366Z,44.22
2022-09-09T09:57:42.931Z,46.30
2022-09-09T10:00:54.236Z,38.78
2022-09-09T10:04:17.194Z,38.00
2022-09-09T10:07:23.478Z,28.85
2022-09-09T10:11:03.061Z,27.00
2022-09-09T10:14:29.788Z,27.27
2022-09-09T10:17:46.116Z,23.58
2022-09-09T10:21:03.793Z,21.15
2022-09-09T10:24:42.590Z,19.35
2022-09-09T10:28:03.965Z,18.65
2022-09-09T10:31:50.112Z,14.25
2022-09-09T10:35:28.261Z,13.93
2022-09-09T10:38:47.486Z,14.55
2022-09-09T10:42:10.959Z,14.52
2022-09-09T10:45:25.385Z,10.70
2022-09-09T10:48:52.169Z,9.77
2022-09-09T10:52:20.233Z,8.68
2022-09-09T10:56:03.172Z,8.80
2022-09-09T10:59:23.576Z,10.18
2022-09-09T11:02:30.756Z,9.07
2022-09-09T11:05:54.167Z,10.55
2022-09-09T11:09:02.314Z,8.15
2022-09-09T11:12:13.913Z,7.90
2022-09-09T11:15:46.446Z,8.18
2022-09-09T11:18:50.943Z,7.80
2022-09-09T11:21:58.897Z,7.45
2022-09-09T11:25:30.893Z,9.20
2022-09-09T11:29:24.150Z,10.77
2022-09-09T11:33:03.658Z,9.93
2022-09-09T11:36:51.020Z,8.32
2022-09-09T11:40:26.363Z,8.75
2022-09-09T11:43:39.615Z,9.18
2022-09-09T11:46:47.139Z,9.52
2022-09-09T11:49:51.761Z,6.55
2022-09-09T11:53:21.944Z,4.72
2022-09-09T11:56:45.291Z,6.93
2022-09-09T11:59:53.818Z,9.57
2022-09-09T12:02:58.019Z,8.57
2022-09-09T12:06:32.166Z,9.32
2022-09-09T12:09:57.591Z,7.10
2022-09-09T12:13:24.715Z,8.25
2022-09-09T12:16:39.530Z,5.25
2022-09-09T12:19:43.837Z,4.65
2022-09-09T12:23:34.532Z,6.43
2022-09-09T12:26:57.945Z,2.08
2022-09-09T12:30:12.957Z,6.63
2022-09-09T12:33:20.235Z,2.22
2022-09-09T12:36:31.579Z,4.25
2022-09-09T12:39:47.443Z,3.47
2022-09-09T12:42:52.282Z,2.90
2022-09-09T12:46:09.660Z,2.33
2022-09-09T12:49:39.575Z,3.70
2022-09-09T12:52:44.682Z,4.68
2022-09-09T12:56:01.769Z,5.15
2022-09-09T12:59:06.352Z,4.38
2022-09-09T13:02:27.423Z,4.53
2022-09-09T13:05:42.559Z,4.60
2022-09-09T13:08:47.119Z,4.55
2022-09-09T13:11:57.430Z,3.38
2022-09-09T13:15:03.346Z,6.57
2022-09-09T13:18:14.133Z,4.55
2022-09-09T13:21:19.644Z,5.28
2022-09-09T13:24:34.989Z,5.50
2022-09-09T13:27:43.710Z,2.88
2022-09-09T13:31:20.604Z,4.68
2022-09-09T13:34:31.175Z,3.28
2022-09-09T13:37:39.754Z,6.18
2022-09-09T13:41:08.701Z,6.10
2022-09-09T13:44:32.784Z,8.18
2022-09-09T13:47:38.184Z,5.40
2022-09-09T13:50:42.569Z,3.95
2022-09-09T13:53:47.403Z,7.13
2022-09-09T13:56:52.241Z,6.97
2022-09-09T14:00:05.432Z,4.78
2022-09-09T14:09:20.766Z,5.32
2022-09-09T14:12:25.443Z,3.15
2022-09-09T14:15:30.208Z,3.83
2022-09-09T14:18:35.024Z,5.35
2022-09-09T14:21:39.764Z,6.38
2022-09-09T14:24:44.079Z,3.33
2022-09-09T14:27:48.246Z,5.30
2022-09-09T14:30:53.927Z,3.05
2022-09-09T14:33:59.820Z,3.88
2022-09-09T14:37:03.990Z,8.13
2022-09-09T14:40:08.737Z,12.27
2022-09-09T14:43:13.367Z,6.35
2022-09-09T14:46:20.342Z,6.28
2022-09-09T14:49:24.828Z,8.50
2022-09-09T14:52:30.622Z,8.30
2022-09-09T14:55:35.388Z,9.30
2022-09-09T14:58:40.393Z,7.60
2022-09-09T15:01:45.362Z,11.27
2022-09-09T15:04:50.863Z,5.82
2022-09-09T15:07:55.473Z,8.80
2022-09-09T15:11:02.102Z,3.53
2022-09-09T15:14:09.383Z,3.60
2022-09-09T15:17:14.432Z,6.65
2022-09-09T15:20:19.007Z,3.80
2022-09-09T15:23:23.672Z,6.20
2022-09-09T15:26:28.707Z,6.78
2022-09-09T15:29:33.631Z,7.20
2022-09-09T15:32:37.814Z,3.30
2022-09-09T15:38:46.191Z,3.60
2022-09-09T15:41:52.513Z,4.85
2022-09-09T15:44:58.016Z,2.67
2022-09-09T15:48:04.139Z,7.70
2022-09-09T15:51:24.882Z,6.47
2022-09-09T15:54:39.737Z,8.93
2022-09-09T15:57:43.943Z,6.80
2022-09-09T16:00:48.760Z,7.40
2022-09-09T16:03:53.176Z,7.32
2022-09-09T16:07:04.569Z,7.47
2022-09-09T16:10:10.341Z,4.05
2022-09-09T16:13:14.998Z,5.72
2022-09-09T16:16:23.057Z,12.05
2022-09-09T16:19:27.259Z,8.25
2022-09-09T16:22:31.854Z,7.85
2022-09-09T16:25:36.117Z,6.05
2022-09-09T16:28:41.228Z,5.95
2022-09-09T16:31:47.636Z,5.97
2022-09-09T16:34:52.318Z,7.10
2022-09-09T16:37:58.242Z,5.97
2022-09-09T16:41:06.046Z,11.23
2022-09-09T16:44:13.538Z,8.38
2022-09-09T16:47:17.733Z,5.35
2022-09-09T16:50:22.303Z,6.65
2022-09-09T16:53:26.559Z,4.10
2022-09-09T16:56:35.003Z,8.48
2022-09-09T16:59:39.323Z,5.63
2022-09-09T17:02:46.078Z,9.10
2022-09-09T17:05:50.131Z,3.33
2022-09-09T17:09:00.566Z,4.10
2022-09-09T17:12:05.200Z,4.10
2022-09-09T17:15:11.056Z,3.20
2022-09-09T17:18:15.540Z,7.60
2022-09-09T17:21:26.395Z,5.47
2022-09-09T17:24:35.261Z,5.18
2022-09-09T17:27:40.023Z,6.38
2022-09-09T17:30:44.769Z,8.13
2022-09-09T17:33:56.272Z,12.05
2022-09-09T17:37:00.638Z,3.78
2022-09-09T17:40:05.501Z,5.13
2022-09-09T17:43:10.082Z,4.15
2022-09-09T17:46:27.097Z,3.05
2022-09-09T17:49:31.589Z,3.60
2022-09-09T17:52:36.077Z,5.20
2022-09-09T17:55:42.296Z,4.07
2022-09-09T17:58:48.145Z,3.97
2022-09-09T18:01:53.023Z,3.58
2022-09-09T18:04:57.564Z,5.78
2022-09-09T18:08:01.938Z,7.20
2022-09-09T18:11:07.851Z,3.20
2022-09-09T18:14:32.068Z,4.43
2022-09-09T18:20:41.978Z,5.82
2022-09-09T18:23:52.307Z,10.35
2022-09-09T18:26:56.394Z,5.22
2022-09-09T18:30:00.898Z,5.55
2022-09-09T18:33:05.657Z,6.22
2022-09-09T18:36:17.024Z,6.03
2022-09-09T18:39:27.192Z,6.93
2022-09-09T18:42:31.477Z,8.23
2022-09-09T18:45:37.972Z,10.43
2022-09-09T18:48:45.754Z,11.52
2022-09-09T18:51:50.491Z,10.75
2022-09-09T18:54:55.094Z,9.82
2022-09-09T18:58:00.270Z,10.38
2022-09-09T19:01:08.598Z,10.27
2022-09-09T19:04:13.589Z,11.77
2022-09-09T19:07:19.008Z,13.10
2022-09-09T19:10:23.461Z,16.08
2022-09-09T19:13:28.801Z,12.07
2022-09-09T19:16:35.501Z,11.10
2022-09-09T19:19:42.433Z,10.82
2022-09-09T19:22:47.183Z,9.85
2022-09-09T19:25:51.487Z,10.90
2022-09-09T19:28:58.777Z,8.68
2022-09-09T19:32:51.809Z,9.68
2022-09-09T19:35:29.297Z,16.17
2022-09-09T19:38:35.478Z,10.95
2022-09-09T19:41:40.510Z,8.02
2022-09-09T19:44:44.966Z,8.65
2022-09-09T19:47:49.283Z,9.15
2022-09-09T19:50:54.541Z,9.07
2022-09-09T19:54:08.151Z,10.40
2022-09-09T19:57:12.845Z,8.63
2022-09-09T20:00:19.153Z,9.25
2022-09-09T20:03:23.314Z,11.85
2022-09-09T20:06:35.547Z,13.45
2022-09-09T20:09:39.725Z,10.38
2022-09-09T20:12:44.359Z,8.20
2022-09-09T20:16:08.109Z,8.65
2022-09-09T20:19:16.236Z,9.52
2022-09-09T20:22:20.713Z,11.70
2022-09-09T20:25:25.084Z,10.23
2022-09-09T20:28:29.830Z,9.82
2022-09-09T20:31:40.350Z,16.95
2022-09-09T20:34:48.398Z,12.52
2022-09-09T20:37:52.848Z,16.42
2022-09-09T20:40:57.212Z,11.52
2022-09-09T20:44:08.308Z,11.40
2022-09-09T20:47:12.852Z,14.63
2022-09-09T20:50:17.450Z,12.32
2022-09-09T20:53:22.991Z,11.68
2022-09-09T20:56:29.392Z,23.60
2022-09-09T20:59:34.928Z,18.27
2022-09-09T21:02:39.184Z,17.98
2022-09-09T21:05:43.603Z,16.60
2022-09-09T21:08:48.822Z,19.25
2022-09-09T21:11:53.643Z,13.10
2022-09-09T21:14:58.128Z,10.30
2022-09-09T21:18:02.243Z,10.35
2022-09-09T21:21:07.670Z,10.73
2022-09-09T21:24:11.887Z,12.43
2022-09-09T21:27:16.257Z,8.38
2022-09-09T21:30:26.592Z,13.73
2022-09-09T21:33:35.369Z,12.10
2022-09-09T21:36:40.882Z,14.85
2022-09-09T21:39:47.902Z,12.32
2022-09-09T21:42:52.564Z,13.73
2022-09-09T21:45:56.958Z,10.43
2022-09-09T21:49:04.012Z,16.48
2022-09-09T21:52:08.639Z,14.63
2022-09-09T21:55:12.657Z,15.77
2022-09-09T21:58:20.892Z,13.35
2022-09-09T22:01:26.166Z,16.00
2022-09-09T22:04:30.783Z,14.15
2022-09-09T22:07:35.369Z,18.90
2022-09-09T22:10:45.772Z,12.90
2022-09-09T22:13:50.998Z,15.05
2022-09-09T22:16:55.306Z,12.10
2022-09-09T22:20:00.023Z,15.60
2022-09-09T22:23:04.564Z,17.05
2022-09-09T22:26:10.307Z,16.75
2022-09-09T22:29:15.418Z,14.82
2022-09-09T22:32:19.984Z,17.67
2022-09-09T22:35:24.929Z,14.85
2022-09-09T22:38:29.397Z,14.55
2022-09-09T22:41:33.943Z,22.38
2022-09-09T22:44:38.574Z,16.42
2022-09-09T22:47:42.991Z,18.15
2022-09-09T22:50:47.750Z,16.05
2022-09-09T22:53:52.041Z,17.83
2022-09-09T22:56:56.290Z,15.98
2022-09-09T23:00:01.456Z,17.10
2022-09-09T23:03:06.489Z,16.42
2022-09-09T23:06:21.039Z,18.23
2022-09-09T23:09:25.195Z,13.18
2022-09-09T23:12:30.144Z,16.80
2022-09-09T23:15:36.814Z,13.43
2022-09-09T23:18:41.418Z,18.45
2022-09-09T23:21:47.990Z,13.35
2022-09-09T23:24:54.023Z,19.45
2022-09-09T23:27:58.696Z,13.95
2022-09-09T23:31:12.990Z,15.02
2022-09-09T23:34:18.123Z,14.27
2022-09-09T23:37:22.558Z,14.27
2022-09-09T23:40:26.921Z,17.88
2022-09-09T23:43:31.124Z,20.90
2022-09-09T23:46:36.082Z,17.60
2022-09-09T23:49:40.221Z,18.88
2022-09-09T23:55:48.607Z,17.15
2022-09-09T23:58:55.015Z,20.35
